Loudon, New Hampshire
Current Conditions -  °F | °C
As of 6:51 AM on Monday 26 Jan 2015 (Local Time) from KCON Reporting Station
Clear Clear  
Wind Chill:   Ceiling: Unl
Heat Index:   Visibility: 10mi
Dew Point: -6°   Wind: 0mph
Humidity: 69%   Direction: NA
Pressure: 30.14"   Gusts: NA
Location:  43.18°N, 71.56°W
Report Text: KCON 261151Z AUTO 00000KT 10SM CLR M17/M21 A3014 RMK AO2 SLP214 T11671211 11139 21167 53017
Loading
Personal Weather Stations






























Interactive Weather Map New forecast layout! Learn more

10-Day Weather Forecast

Advertisements
Track Severe Weather on mobile